sensor_id;sensor_type;location;lat;lon;timestamp;P1;durP1;ratioP1;P2;durP2;ratioP2
5827;SDS011;42583;50.240;8.444;2022-11-18T00:08:09;6.63;;;1.50;;
5827;SDS011;42583;50.240;8.444;2022-11-18T00:23:10;9.38;;;1.90;;
5827;SDS011;42583;50.240;8.444;2022-11-18T00:38:11;255.85;;;6.82;;
5827;SDS011;42583;50.240;8.444;2022-11-18T00:53:11;6.80;;;2.40;;
5827;SDS011;42583;50.240;8.444;2022-11-18T01:08:13;8.32;;;2.20;;
5827;SDS011;42583;50.240;8.444;2022-11-18T01:23:13;7.38;;;1.75;;
5827;SDS011;42583;50.240;8.444;2022-11-18T01:38:15;4.38;;;1.70;;
5827;SDS011;42583;50.240;8.444;2022-11-18T01:53:17;6.63;;;1.63;;
5827;SDS011;42583;50.240;8.444;2022-11-18T02:08:22;8.27;;;1.60;;
5827;SDS011;42583;50.240;8.444;2022-11-18T02:39:15;3.63;;;1.17;;
5827;SDS011;42583;50.240;8.444;2022-11-18T02:54:20;8.02;;;1.80;;
5827;SDS011;42583;50.240;8.444;2022-11-18T03:09:28;10.23;;;1.58;;
5827;SDS011;42583;50.240;8.444;2022-11-18T03:24:33;3.80;;;1.13;;
5827;SDS011;42583;50.240;8.444;2022-11-18T03:39:38;3.55;;;1.20;;
5827;SDS011;42583;50.240;8.444;2022-11-18T03:54:41;2.40;;;1.00;;
5827;SDS011;42583;50.240;8.444;2022-11-18T04:09:45;1.92;;;1.10;;
5827;SDS011;42583;50.240;8.444;2022-11-18T04:24:51;3.75;;;1.30;;
5827;SDS011;42583;50.240;8.444;2022-11-18T04:39:51;2.88;;;1.20;;
5827;SDS011;42583;50.240;8.444;2022-11-18T04:54:52;4.25;;;1.25;;
5827;SDS011;42583;50.240;8.444;2022-11-18T05:09:53;3.95;;;0.90;;
5827;SDS011;42583;50.240;8.444;2022-11-18T05:24:53;3.47;;;1.10;;
5827;SDS011;42583;50.240;8.444;2022-11-18T05:39:54;1.55;;;1.10;;
5827;SDS011;42583;50.240;8.444;2022-11-18T05:54:54;6.18;;;1.30;;
5827;SDS011;42583;50.240;8.444;2022-11-18T06:09:55;6.68;;;1.77;;
5827;SDS011;42583;50.240;8.444;2022-11-18T06:24:59;4.35;;;2.15;;
5827;SDS011;42583;50.240;8.444;2022-11-18T06:40:00;26.00;;;3.50;;
5827;SDS011;42583;50.240;8.444;2022-11-18T06:55:00;362.58;;;8.30;;
5827;SDS011;42583;50.240;8.444;2022-11-18T07:10:01;401.63;;;9.13;;
5827;SDS011;42583;50.240;8.444;2022-11-18T07:25:01;379.20;;;6.68;;
5827;SDS011;42583;50.240;8.444;2022-11-18T07:40:02;7.55;;;2.65;;
5827;SDS011;42583;50.240;8.444;2022-11-18T07:55:03;8.52;;;2.83;;
5827;SDS011;42583;50.240;8.444;2022-11-18T08:10:04;84.40;;;3.47;;
5827;SDS011;42583;50.240;8.444;2022-11-18T08:25:05;33.22;;;2.95;;
5827;SDS011;42583;50.240;8.444;2022-11-18T08:40:06;433.73;;;8.73;;
5827;SDS011;42583;50.240;8.444;2022-11-18T08:55:07;280.70;;;6.15;;
5827;SDS011;42583;50.240;8.444;2022-11-18T09:10:08;225.32;;;4.60;;
5827;SDS011;42583;50.240;8.444;2022-11-18T09:25:08;373.35;;;7.32;;
5827;SDS011;42583;50.240;8.444;2022-11-18T09:40:12;45.05;;;3.58;;
5827;SDS011;42583;50.240;8.444;2022-11-18T09:55:17;245.52;;;6.20;;
5827;SDS011;42583;50.240;8.444;2022-11-18T10:10:28;330.38;;;7.50;;
5827;SDS011;42583;50.240;8.444;2022-11-18T10:25:44;467.57;;;9.73;;
5827;SDS011;42583;50.240;8.444;2022-11-18T10:40:58;46.97;;;3.75;;
5827;SDS011;42583;50.240;8.444;2022-11-18T10:56:09;124.63;;;4.82;;
5827;SDS011;42583;50.240;8.444;2022-11-18T11:11:17;4.60;;;2.40;;
5827;SDS011;42583;50.240;8.444;2022-11-18T11:26:45;3.67;;;2.20;;
5827;SDS011;42583;50.240;8.444;2022-11-18T11:42:05;6.00;;;2.00;;
5827;SDS011;42583;50.240;8.444;2022-11-18T11:57:38;10.32;;;2.03;;
5827;SDS011;42583;50.240;8.444;2022-11-18T12:13:01;3.17;;;1.27;;
5827;SDS011;42583;50.240;8.444;2022-11-18T12:28:28;4.70;;;2.17;;
5827;SDS011;42583;50.240;8.444;2022-11-18T12:58:47;4.85;;;2.40;;
5827;SDS011;42583;50.240;8.444;2022-11-18T13:13:49;4.00;;;1.40;;
5827;SDS011;42583;50.240;8.444;2022-11-18T13:29:21;4.75;;;1.60;;
5827;SDS011;42583;50.240;8.444;2022-11-18T13:44:32;4.68;;;1.23;;
5827;SDS011;42583;50.240;8.444;2022-11-18T13:59:33;1.35;;;0.90;;
5827;SDS011;42583;50.240;8.444;2022-11-18T14:14:35;2.75;;;0.80;;
5827;SDS011;42583;50.240;8.444;2022-11-18T14:29:47;2.67;;;0.93;;
5827;SDS011;42583;50.240;8.444;2022-11-18T14:44:49;7.50;;;0.90;;
5827;SDS011;42583;50.240;8.444;2022-11-18T14:59:50;5.15;;;0.90;;
5827;SDS011;42583;50.240;8.444;2022-11-18T15:14:50;4.35;;;0.98;;
5827;SDS011;42583;50.240;8.444;2022-11-18T15:29:51;4.28;;;1.10;;
5827;SDS011;42583;50.240;8.444;2022-11-18T15:44:51;5.10;;;1.30;;
5827;SDS011;42583;50.240;8.444;2022-11-18T15:59:52;5.57;;;1.40;;
5827;SDS011;42583;50.240;8.444;2022-11-18T16:14:52;8.63;;;2.17;;
5827;SDS011;42583;50.240;8.444;2022-11-18T16:30:13;7.28;;;2.50;;
5827;SDS011;42583;50.240;8.444;2022-11-18T16:45:32;5.32;;;1.50;;
5827;SDS011;42583;50.240;8.444;2022-11-18T17:00:33;10.00;;;1.90;;
5827;SDS011;42583;50.240;8.444;2022-11-18T17:15:34;9.95;;;2.08;;
5827;SDS011;42583;50.240;8.444;2022-11-18T17:30:34;10.65;;;1.90;;
5827;SDS011;42583;50.240;8.444;2022-11-18T17:45:38;6.53;;;1.58;;
5827;SDS011;42583;50.240;8.444;2022-11-18T18:00:39;5.93;;;2.10;;
5827;SDS011;42583;50.240;8.444;2022-11-18T18:15:40;8.38;;;2.15;;
5827;SDS011;42583;50.240;8.444;2022-11-18T18:30:40;5.47;;;1.92;;
5827;SDS011;42583;50.240;8.444;2022-11-18T18:45:41;8.43;;;2.50;;
5827;SDS011;42583;50.240;8.444;2022-11-18T19:01:07;8.07;;;2.20;;
5827;SDS011;42583;50.240;8.444;2022-11-18T19:16:09;5.35;;;2.20;;
5827;SDS011;42583;50.240;8.444;2022-11-18T19:31:09;8.27;;;2.50;;
5827;SDS011;42583;50.240;8.444;2022-11-18T19:46:10;5.25;;;2.28;;
5827;SDS011;42583;50.240;8.444;2022-11-18T20:01:14;9.50;;;2.75;;
5827;SDS011;42583;50.240;8.444;2022-11-18T20:16:22;4.68;;;2.35;;
5827;SDS011;42583;50.240;8.444;2022-11-18T20:31:24;4.20;;;1.80;;
5827;SDS011;42583;50.240;8.444;2022-11-18T20:46:26;2.35;;;1.85;;
5827;SDS011;42583;50.240;8.444;2022-11-18T21:01:27;3.03;;;1.52;;
5827;SDS011;42583;50.240;8.444;2022-11-18T21:16:28;1.67;;;1.17;;
5827;SDS011;42583;50.240;8.444;2022-11-18T21:31:29;5.40;;;1.60;;
5827;SDS011;42583;50.240;8.444;2022-11-18T21:46:32;3.28;;;1.50;;
5827;SDS011;42583;50.240;8.444;2022-11-18T22:01:33;1.50;;;1.08;;
5827;SDS011;42583;50.240;8.444;2022-11-18T22:16:34;3.15;;;1.20;;
5827;SDS011;42583;50.240;8.444;2022-11-18T22:31:34;3.65;;;1.20;;
5827;SDS011;42583;50.240;8.444;2022-11-18T22:46:35;2.17;;;0.93;;
5827;SDS011;42583;50.240;8.444;2022-11-18T23:01:36;2.05;;;1.10;;
5827;SDS011;42583;50.240;8.444;2022-11-18T23:16:38;4.70;;;2.30;;
5827;SDS011;42583;50.240;8.444;2022-11-18T23:31:40;23.65;;;3.40;;
5827;SDS011;42583;50.240;8.444;2022-11-18T23:46:42;11.32;;;3.72;;
